sensor_id;sensor_type;location;lat;lon;timestamp;pressure;altitude;pressure_sealevel;temperature;humidity
10988;BME280;5547;42.672;23.230;2023-02-08T00:02:31;94769.78;;;-8.80;89.84
10988;BME280;5547;42.672;23.230;2023-02-08T00:05:31;94779.69;;;-8.67;89.12
10988;BME280;5547;42.672;23.230;2023-02-08T00:08:33;94752.97;;;-8.88;89.09
10988;BME280;5547;42.672;23.230;2023-02-08T00:11:33;94788.50;;;-8.58;89.14
10988;BME280;5547;42.672;23.230;2023-02-08T00:14:35;94794.50;;;-8.52;88.43
10988;BME280;5547;42.672;23.230;2023-02-08T00:17:35;94786.97;;;-8.59;87.95
10988;BME280;5547;42.672;23.230;2023-02-08T00:20:40;94781.28;;;-8.61;87.72
10988;BME280;5547;42.672;23.230;2023-02-08T00:23:41;94774.50;;;-8.67;88.21
10988;BME280;5547;42.672;23.230;2023-02-08T00:26:42;94780.81;;;-8.53;87.80
10988;BME280;5547;42.672;23.230;2023-02-08T00:29:42;94715.53;;;-8.96;88.46
10988;BME280;5547;42.672;23.230;2023-02-08T00:32:42;94776.22;;;-8.46;88.21
10988;BME280;5547;42.672;23.230;2023-02-08T00:35:43;94765.25;;;-8.68;87.74
10988;BME280;5547;42.672;23.230;2023-02-08T00:38:43;94776.66;;;-8.59;87.94
10988;BME280;5547;42.672;23.230;2023-02-08T00:41:44;94822.81;;;-8.20;86.09
10988;BME280;5547;42.672;23.230;2023-02-08T00:44:44;94824.31;;;-8.24;86.68
10988;BME280;5547;42.672;23.230;2023-02-08T00:47:45;94778.47;;;-8.54;85.65
10988;BME280;5547;42.672;23.230;2023-02-08T00:51:05;94809.09;;;-8.20;86.12
10988;BME280;5547;42.672;23.230;2023-02-08T00:54:14;94803.34;;;-8.38;84.61
10988;BME280;5547;42.672;23.230;2023-02-08T00:57:15;94768.81;;;-8.69;84.69
10988;BME280;5547;42.672;23.230;2023-02-08T01:00:15;94827.91;;;-8.25;85.35
10988;BME280;5547;42.672;23.230;2023-02-08T01:03:16;94831.03;;;-8.23;84.38
10988;BME280;5547;42.672;23.230;2023-02-08T01:06:16;94840.06;;;-8.20;86.50
10988;BME280;5547;42.672;23.230;2023-02-08T01:09:17;94836.97;;;-8.23;84.47
10988;BME280;5547;42.672;23.230;2023-02-08T01:12:17;94796.88;;;-8.46;84.76
10988;BME280;5547;42.672;23.230;2023-02-08T01:15:18;94710.38;;;-8.96;84.98
10988;BME280;5547;42.672;23.230;2023-02-08T01:18:18;94820.16;;;-8.30;84.67
10988;BME280;5547;42.672;23.230;2023-02-08T01:21:24;94851.44;;;-8.21;84.68
10988;BME280;5547;42.672;23.230;2023-02-08T01:24:25;94821.97;;;-8.26;84.87
10988;BME280;5547;42.672;23.230;2023-02-08T01:27:25;94805.69;;;-8.31;84.98
10988;BME280;5547;42.672;23.230;2023-02-08T01:30:25;94821.22;;;-8.26;84.26
10988;BME280;5547;42.672;23.230;2023-02-08T01:33:26;94795.31;;;-8.41;84.57
10988;BME280;5547;42.672;23.230;2023-02-08T01:36:28;94807.31;;;-8.20;84.47
10988;BME280;5547;42.672;23.230;2023-02-08T01:39:29;94805.22;;;-8.23;83.55
10988;BME280;5547;42.672;23.230;2023-02-08T01:42:29;94830.16;;;-8.01;83.93
10988;BME280;5547;42.672;23.230;2023-02-08T01:45:30;94828.13;;;-7.89;83.52
10988;BME280;5547;42.672;23.230;2023-02-08T01:48:35;94802.41;;;-8.21;85.29
10988;BME280;5547;42.672;23.230;2023-02-08T01:51:43;94792.09;;;-8.16;84.70
10988;BME280;5547;42.672;23.230;2023-02-08T01:54:52;94833.50;;;-8.01;84.13
10988;BME280;5547;42.672;23.230;2023-02-08T01:57:58;94832.16;;;-8.09;83.97
10988;BME280;5547;42.672;23.230;2023-02-08T02:01:02;94814.81;;;-8.13;85.02
10988;BME280;5547;42.672;23.230;2023-02-08T02:04:04;94850.81;;;-7.96;83.88
10988;BME280;5547;42.672;23.230;2023-02-08T02:07:06;94847.72;;;-7.93;84.81
10988;BME280;5547;42.672;23.230;2023-02-08T02:13:25;94846.66;;;-7.97;85.24
10988;BME280;5547;42.672;23.230;2023-02-08T02:16:26;94761.19;;;-8.54;83.59
10988;BME280;5547;42.672;23.230;2023-02-08T02:19:32;94854.94;;;-7.95;85.42
10988;BME280;5547;42.672;23.230;2023-02-08T02:29:32;94863.66;;;-8.07;87.11
10988;BME280;5547;42.672;23.230;2023-02-08T02:42:25;94825.28;;;-8.40;89.49
10988;BME280;5547;42.672;23.230;2023-02-08T02:46:15;94878.41;;;-8.02;89.98
10988;BME280;5547;42.672;23.230;2023-02-08T02:52:40;94823.97;;;-8.38;90.92
10988;BME280;5547;42.672;23.230;2023-02-08T02:55:46;94850.69;;;-8.17;90.65
10988;BME280;5547;42.672;23.230;2023-02-08T02:58:49;94874.81;;;-8.01;90.88
10988;BME280;5547;42.672;23.230;2023-02-08T03:01:54;94840.28;;;-8.27;93.25
10988;BME280;5547;42.672;23.230;2023-02-08T03:04:56;94774.03;;;-8.64;91.72
10988;BME280;5547;42.672;23.230;2023-02-08T03:11:23;94885.88;;;-8.06;93.30
10988;BME280;5547;42.672;23.230;2023-02-08T03:14:33;94854.66;;;-8.41;92.75
10988;BME280;5547;42.672;23.230;2023-02-08T03:21:01;94890.44;;;-8.18;94.48
10988;BME280;5547;42.672;23.230;2023-02-08T03:27:30;94811.19;;;-8.60;94.16
10988;BME280;5547;42.672;23.230;2023-02-08T03:30:41;94882.78;;;-8.08;94.65
10988;BME280;5547;42.672;23.230;2023-02-08T03:33:51;94883.28;;;-8.11;95.17
10988;BME280;5547;42.672;23.230;2023-02-08T03:37:20;94871.88;;;-8.15;94.46
10988;BME280;5547;42.672;23.230;2023-02-08T03:40:26;94819.75;;;-8.54;94.60
10988;BME280;5547;42.672;23.230;2023-02-08T03:43:42;94825.56;;;-8.69;94.52
10988;BME280;5547;42.672;23.230;2023-02-08T03:46:54;94837.63;;;-8.80;95.38
10988;BME280;5547;42.672;23.230;2023-02-08T03:50:00;94879.06;;;-8.59;96.23
10988;BME280;5547;42.672;23.230;2023-02-08T03:53:05;94855.72;;;-8.75;96.33
10988;BME280;5547;42.672;23.230;2023-02-08T03:56:11;94810.56;;;-9.04;96.47
10988;BME280;5547;42.672;23.230;2023-02-08T03:59:18;94827.59;;;-9.03;96.82
10988;BME280;5547;42.672;23.230;2023-02-08T04:02:22;94847.47;;;-8.99;97.72
10988;BME280;5547;42.672;23.230;2023-02-08T04:05:25;94878.03;;;-8.85;97.90
10988;BME280;5547;42.672;23.230;2023-02-08T04:08:25;94896.56;;;-8.89;97.67
10988;BME280;5547;42.672;23.230;2023-02-08T04:11:26;94864.47;;;-9.03;97.70
10988;BME280;5547;42.672;23.230;2023-02-08T04:14:27;94847.34;;;-9.14;97.43
10988;BME280;5547;42.672;23.230;2023-02-08T04:17:27;94879.03;;;-8.92;97.38
10988;BME280;5547;42.672;23.230;2023-02-08T04:20:28;94892.09;;;-8.71;97.06
10988;BME280;5547;42.672;23.230;2023-02-08T04:23:28;94891.31;;;-8.72;96.69
10988;BME280;5547;42.672;23.230;2023-02-08T04:26:29;94828.09;;;-9.06;96.98
10988;BME280;5547;42.672;23.230;2023-02-08T04:29:29;94888.69;;;-8.77;97.11
10988;BME280;5547;42.672;23.230;2023-02-08T04:32:30;94851.06;;;-9.05;96.84
10988;BME280;5547;42.672;23.230;2023-02-08T04:35:30;94886.31;;;-8.83;96.81
10988;BME280;5547;42.672;23.230;2023-02-08T04:38:31;94907.28;;;-8.75;96.68
10988;BME280;5547;42.672;23.230;2023-02-08T04:41:31;94909.28;;;-8.82;97.58
10988;BME280;5547;42.672;23.230;2023-02-08T04:44:32;94827.19;;;-9.44;97.90
10988;BME280;5547;42.672;23.230;2023-02-08T04:47:32;94914.59;;;-8.94;98.69
10988;BME280;5547;42.672;23.230;2023-02-08T04:50:33;94881.41;;;-9.12;98.65
10988;BME280;5547;42.672;23.230;2023-02-08T04:53:34;94910.47;;;-8.90;99.17
10988;BME280;5547;42.672;23.230;2023-02-08T04:56:35;94908.22;;;-9.08;99.00
10988;BME280;5547;42.672;23.230;2023-02-08T04:59:35;94883.38;;;-9.41;98.74
10988;BME280;5547;42.672;23.230;2023-02-08T05:02:37;94913.38;;;-9.52;99.38
10988;BME280;5547;42.672;23.230;2023-02-08T05:05:38;94908.28;;;-9.69;100.00
10988;BME280;5547;42.672;23.230;2023-02-08T05:08:38;94919.72;;;-9.82;100.00
10988;BME280;5547;42.672;23.230;2023-02-08T05:11:39;94869.69;;;-10.25;100.00
10988;BME280;5547;42.672;23.230;2023-02-08T05:14:39;94956.47;;;-9.86;100.00
10988;BME280;5547;42.672;23.230;2023-02-08T05:17:40;94938.66;;;-9.88;100.00
10988;BME280;5547;42.672;23.230;2023-02-08T05:20:40;94931.94;;;-9.89;100.00
10988;BME280;5547;42.672;23.230;2023-02-08T05:23:41;94944.03;;;-9.89;100.00
10988;BME280;5547;42.672;23.230;2023-02-08T05:26:41;94893.84;;;-10.26;100.00
10988;BME280;5547;42.672;23.230;2023-02-08T05:29:41;94908.56;;;-10.21;100.00
10988;BME280;5547;42.672;23.230;2023-02-08T05:32:42;94947.88;;;-9.92;100.00
10988;BME280;5547;42.672;23.230;2023-02-08T05:35:46;94984.16;;;-9.77;100.00
10988;BME280;5547;42.672;23.230;2023-02-08T05:38:46;94974.22;;;-9.68;100.00
10988;BME280;5547;42.672;23.230;2023-02-08T05:41:47;94875.50;;;-10.34;100.00
10988;BME280;5547;42.672;23.230;2023-02-08T05:44:47;94944.09;;;-9.84;100.00
10988;BME280;5547;42.672;23.230;2023-02-08T05:47:47;94918.16;;;-10.00;100.00
10988;BME280;5547;42.672;23.230;2023-02-08T05:50:48;94978.88;;;-9.48;100.00
10988;BME280;5547;42.672;23.230;2023-02-08T05:53:49;94980.00;;;-9.61;100.00
10988;BME280;5547;42.672;23.230;2023-02-08T05:56:49;94802.53;;;-10.79;100.00
10988;BME280;5547;42.672;23.230;2023-02-08T05:59:50;94846.47;;;-10.47;100.00
10988;BME280;5547;42.672;23.230;2023-02-08T06:02:50;94894.78;;;-10.15;100.00
10988;BME280;5547;42.672;23.230;2023-02-08T06:05:51;94868.84;;;-10.30;100.00
10988;BME280;5547;42.672;23.230;2023-02-08T06:08:53;94898.84;;;-10.02;100.00
10988;BME280;5547;42.672;23.230;2023-02-08T06:11:53;95002.28;;;-9.33;100.00
10988;BME280;5547;42.672;23.230;2023-02-08T06:14:53;94939.41;;;-9.54;100.00
10988;BME280;5547;42.672;23.230;2023-02-08T06:17:54;94996.94;;;-9.04;100.00
10988;BME280;5547;42.672;23.230;2023-02-08T06:20:56;94996.41;;;-8.84;100.00
10988;BME280;5547;42.672;23.230;2023-02-08T06:23:58;95000.41;;;-8.71;99.59
10988;BME280;5547;42.672;23.230;2023-02-08T06:26:58;94984.47;;;-8.68;96.39
10988;BME280;5547;42.672;23.230;2023-02-08T06:29:59;94919.25;;;-9.13;93.16
10988;BME280;5547;42.672;23.230;2023-02-08T06:33:00;94997.09;;;-8.44;93.35
10988;BME280;5547;42.672;23.230;2023-02-08T06:36:00;94997.69;;;-8.32;92.63
10988;BME280;5547;42.672;23.230;2023-02-08T06:39:01;95001.44;;;-8.18;92.17
10988;BME280;5547;42.672;23.230;2023-02-08T06:42:02;94999.88;;;-8.19;90.73
10988;BME280;5547;42.672;23.230;2023-02-08T06:45:02;94954.84;;;-8.33;88.96
10988;BME280;5547;42.672;23.230;2023-02-08T06:48:04;94926.44;;;-8.38;89.40
10988;BME280;5547;42.672;23.230;2023-02-08T06:51:05;94953.38;;;-8.24;88.56
10988;BME280;5547;42.672;23.230;2023-02-08T06:54:05;95022.94;;;-7.80;88.78
10988;BME280;5547;42.672;23.230;2023-02-08T06:57:06;95012.78;;;-7.92;87.21
10988;BME280;5547;42.672;23.230;2023-02-08T07:00:08;94991.75;;;-8.33;88.95
10988;BME280;5547;42.672;23.230;2023-02-08T07:03:09;95018.16;;;-8.26;88.41
10988;BME280;5547;42.672;23.230;2023-02-08T07:06:14;95022.97;;;-8.34;89.51
10988;BME280;5547;42.672;23.230;2023-02-08T07:09:16;95028.28;;;-8.19;89.14
10988;BME280;5547;42.672;23.230;2023-02-08T07:12:17;95020.97;;;-8.27;88.52
10988;BME280;5547;42.672;23.230;2023-02-08T07:15:18;95030.66;;;-8.39;89.85
10988;BME280;5547;42.672;23.230;2023-02-08T07:18:20;94989.72;;;-8.58;90.83
10988;BME280;5547;42.672;23.230;2023-02-08T07:21:20;94995.66;;;-8.30;89.13
10988;BME280;5547;42.672;23.230;2023-02-08T07:24:22;95019.78;;;-7.87;86.33
10988;BME280;5547;42.672;23.230;2023-02-08T07:27:23;94963.41;;;-8.28;85.42
10988;BME280;5547;42.672;23.230;2023-02-08T07:30:24;95038.47;;;-7.37;85.12
10988;BME280;5547;42.672;23.230;2023-02-08T07:33:25;95012.19;;;-7.67;84.06
10988;BME280;5547;42.672;23.230;2023-02-08T07:36:25;94992.66;;;-7.90;83.89
10988;BME280;5547;42.672;23.230;2023-02-08T07:39:26;95049.69;;;-7.27;83.95
10988;BME280;5547;42.672;23.230;2023-02-08T07:42:26;95031.03;;;-7.29;82.76
10988;BME280;5547;42.672;23.230;2023-02-08T07:45:26;95056.53;;;-7.00;82.30
10988;BME280;5547;42.672;23.230;2023-02-08T07:48:27;95014.25;;;-6.73;78.68
10988;BME280;5547;42.672;23.230;2023-02-08T07:51:28;95068.31;;;-6.04;76.86
10988;BME280;5547;42.672;23.230;2023-02-08T07:54:29;95066.78;;;-5.43;74.52
10988;BME280;5547;42.672;23.230;2023-02-08T07:57:30;95063.16;;;-5.47;73.58
10988;BME280;5547;42.672;23.230;2023-02-08T08:00:30;95071.19;;;-5.70;73.30
10988;BME280;5547;42.672;23.230;2023-02-08T08:03:33;95063.41;;;-5.54;72.53
10988;BME280;5547;42.672;23.230;2023-02-08T08:06:34;95033.00;;;-6.41;73.40
10988;BME280;5547;42.672;23.230;2023-02-08T08:09:35;95023.72;;;-6.21;72.78
10988;BME280;5547;42.672;23.230;2023-02-08T08:12:35;94997.38;;;-6.86;73.12
10988;BME280;5547;42.672;23.230;2023-02-08T08:15:36;94995.72;;;-7.13;74.81
10988;BME280;5547;42.672;23.230;2023-02-08T08:18:38;95055.81;;;-6.32;72.91
10988;BME280;5547;42.672;23.230;2023-02-08T08:21:38;95058.31;;;-6.58;74.28
10988;BME280;5547;42.672;23.230;2023-02-08T08:24:39;95061.69;;;-6.58;73.67
10988;BME280;5547;42.672;23.230;2023-02-08T08:27:40;95026.88;;;-6.87;74.25
10988;BME280;5547;42.672;23.230;2023-02-08T08:30:44;95009.59;;;-6.71;74.67
10988;BME280;5547;42.672;23.230;2023-02-08T08:33:45;95054.31;;;-6.08;72.63
10988;BME280;5547;42.672;23.230;2023-02-08T08:36:45;95048.56;;;-6.30;72.84
10988;BME280;5547;42.672;23.230;2023-02-08T08:39:46;95058.19;;;-6.05;72.92
10988;BME280;5547;42.672;23.230;2023-02-08T08:42:48;94974.41;;;-6.72;72.92
10988;BME280;5547;42.672;23.230;2023-02-08T08:45:50;95071.91;;;-6.10;73.68
10988;BME280;5547;42.672;23.230;2023-02-08T08:48:50;95065.41;;;-6.28;74.25
10988;BME280;5547;42.672;23.230;2023-02-08T08:51:51;95034.06;;;-6.26;73.62
10988;BME280;5547;42.672;23.230;2023-02-08T08:54:51;95083.38;;;-5.60;72.22
10988;BME280;5547;42.672;23.230;2023-02-08T08:57:52;95018.00;;;-6.34;72.37
10988;BME280;5547;42.672;23.230;2023-02-08T09:00:56;95064.69;;;-5.67;72.41
10988;BME280;5547;42.672;23.230;2023-02-08T09:03:58;95086.47;;;-5.27;71.92
10988;BME280;5547;42.672;23.230;2023-02-08T09:06:58;95081.53;;;-4.98;69.31
10988;BME280;5547;42.672;23.230;2023-02-08T09:10:02;95069.38;;;-5.13;69.52
10988;BME280;5547;42.672;23.230;2023-02-08T09:13:03;95071.41;;;-5.20;71.12
10988;BME280;5547;42.672;23.230;2023-02-08T09:20:02;95090.63;;;-5.05;69.00
10988;BME280;5547;42.672;23.230;2023-02-08T09:23:04;95063.63;;;-5.04;68.30
10988;BME280;5547;42.672;23.230;2023-02-08T09:26:08;95088.53;;;-4.93;66.60
10988;BME280;5547;42.672;23.230;2023-02-08T09:29:09;95012.31;;;-5.33;66.98
10988;BME280;5547;42.672;23.230;2023-02-08T09:32:10;95073.50;;;-5.17;67.50
10988;BME280;5547;42.672;23.230;2023-02-08T09:35:11;95095.78;;;-4.90;68.49
10988;BME280;5547;42.672;23.230;2023-02-08T09:38:12;95060.50;;;-5.07;66.06
10988;BME280;5547;42.672;23.230;2023-02-08T09:47:36;95099.91;;;-4.79;66.24
10988;BME280;5547;42.672;23.230;2023-02-08T09:50:45;95067.25;;;-5.11;67.17
10988;BME280;5547;42.672;23.230;2023-02-08T09:53:52;95032.75;;;-5.11;67.04
10988;BME280;5547;42.672;23.230;2023-02-08T09:56:59;95089.69;;;-4.34;63.73
10988;BME280;5547;42.672;23.230;2023-02-08T10:00:08;95079.53;;;-4.36;64.90
10988;BME280;5547;42.672;23.230;2023-02-08T10:03:37;95064.00;;;-4.51;63.79
10988;BME280;5547;42.672;23.230;2023-02-08T10:06:39;95024.38;;;-4.77;64.86
10988;BME280;5547;42.672;23.230;2023-02-08T10:09:40;95061.63;;;-4.43;64.46
10988;BME280;5547;42.672;23.230;2023-02-08T10:16:04;95072.09;;;-4.03;62.79
10988;BME280;5547;42.672;23.230;2023-02-08T10:26:17;95062.09;;;-3.81;60.44
10988;BME280;5547;42.672;23.230;2023-02-08T10:29:37;95043.78;;;-3.65;60.02
10988;BME280;5547;42.672;23.230;2023-02-08T10:36:36;95009.00;;;-3.74;58.39
10988;BME280;5547;42.672;23.230;2023-02-08T10:39:41;94996.19;;;-3.66;58.59
10988;BME280;5547;42.672;23.230;2023-02-08T10:42:50;95067.53;;;-2.84;58.41
10988;BME280;5547;42.672;23.230;2023-02-08T10:45:59;95066.91;;;-2.71;57.98
10988;BME280;5547;42.672;23.230;2023-02-08T10:52:19;95066.56;;;-2.64;55.85
10988;BME280;5547;42.672;23.230;2023-02-08T10:55:20;95066.78;;;-2.85;57.68
10988;BME280;5547;42.672;23.230;2023-02-08T10:58:23;95017.00;;;-2.35;55.53
10988;BME280;5547;42.672;23.230;2023-02-08T11:01:27;95052.81;;;-2.46;55.73
10988;BME280;5547;42.672;23.230;2023-02-08T11:04:28;95007.16;;;-3.10;56.88
10988;BME280;5547;42.672;23.230;2023-02-08T11:07:29;95082.97;;;-2.64;55.92
10988;BME280;5547;42.672;23.230;2023-02-08T11:10:30;95078.38;;;-2.48;55.33
10988;BME280;5547;42.672;23.230;2023-02-08T11:16:34;95055.97;;;-3.26;60.06
10988;BME280;5547;42.672;23.230;2023-02-08T11:19:38;95081.25;;;-3.32;60.15
10988;BME280;5547;42.672;23.230;2023-02-08T11:22:44;95056.44;;;-3.88;61.07
10988;BME280;5547;42.672;23.230;2023-02-08T11:25:45;95087.13;;;-3.50;61.10
10988;BME280;5547;42.672;23.230;2023-02-08T11:28:59;95081.63;;;-3.44;61.33
10988;BME280;5547;42.672;23.230;2023-02-08T11:32:09;95088.22;;;-4.01;63.00
10988;BME280;5547;42.672;23.230;2023-02-08T11:38:20;95083.84;;;-4.11;62.99
10988;BME280;5547;42.672;23.230;2023-02-08T11:41:27;95081.75;;;-3.64;62.83
10988;BME280;5547;42.672;23.230;2023-02-08T11:44:42;94981.69;;;-4.56;62.44
10988;BME280;5547;42.672;23.230;2023-02-08T11:47:46;95090.31;;;-4.08;63.64
10988;BME280;5547;42.672;23.230;2023-02-08T11:50:53;95096.06;;;-4.16;64.22
10988;BME280;5547;42.672;23.230;2023-02-08T11:53:55;95091.03;;;-4.52;64.81
10988;BME280;5547;42.672;23.230;2023-02-08T11:57:23;95070.25;;;-4.52;65.15
10988;BME280;5547;42.672;23.230;2023-02-08T12:00:33;95096.69;;;-4.40;65.09
10988;BME280;5547;42.672;23.230;2023-02-08T12:03:36;95072.63;;;-4.61;65.91
10988;BME280;5547;42.672;23.230;2023-02-08T12:17:14;95091.97;;;-4.33;64.16
10988;BME280;5547;42.672;23.230;2023-02-08T12:30:24;95093.53;;;-4.27;63.25
10988;BME280;5547;42.672;23.230;2023-02-08T12:33:49;95091.03;;;-4.52;64.05
10988;BME280;5547;42.672;23.230;2023-02-08T12:37:08;95081.44;;;-4.67;64.30
10988;BME280;5547;42.672;23.230;2023-02-08T12:40:51;95011.78;;;-5.30;63.88
10988;BME280;5547;42.672;23.230;2023-02-08T12:44:11;95093.41;;;-4.76;64.26
10988;BME280;5547;42.672;23.230;2023-02-08T12:50:43;95092.91;;;-4.83;63.07
10988;BME280;5547;42.672;23.230;2023-02-08T12:53:59;95080.69;;;-4.68;61.62
10988;BME280;5547;42.672;23.230;2023-02-08T12:57:04;95104.00;;;-4.47;60.81
10988;BME280;5547;42.672;23.230;2023-02-08T13:00:17;95097.16;;;-4.23;60.12
10988;BME280;5547;42.672;23.230;2023-02-08T13:03:46;95101.25;;;-4.16;60.07
10988;BME280;5547;42.672;23.230;2023-02-08T13:06:56;95084.72;;;-4.31;58.39
10988;BME280;5547;42.672;23.230;2023-02-08T13:10:17;95115.53;;;-4.14;58.40
10988;BME280;5547;42.672;23.230;2023-02-08T13:13:27;95111.75;;;-4.42;59.48
10988;BME280;5547;42.672;23.230;2023-02-08T13:16:38;94914.34;;;-5.62;58.56
10988;BME280;5547;42.672;23.230;2023-02-08T13:20:06;95043.28;;;-4.61;56.73
10988;BME280;5547;42.672;23.230;2023-02-08T13:26:29;95115.16;;;-3.87;56.43
10988;BME280;5547;42.672;23.230;2023-02-08T13:29:32;95087.25;;;-4.15;55.58
10988;BME280;5547;42.672;23.230;2023-02-08T13:32:39;95086.50;;;-4.26;56.87
10988;BME280;5547;42.672;23.230;2023-02-08T13:35:42;95130.38;;;-4.14;56.76
10988;BME280;5547;42.672;23.230;2023-02-08T13:38:46;95120.19;;;-4.06;56.33
10988;BME280;5547;42.672;23.230;2023-02-08T13:41:54;95121.00;;;-4.10;56.91
10988;BME280;5547;42.672;23.230;2023-02-08T13:44:57;95135.81;;;-4.11;57.13
10988;BME280;5547;42.672;23.230;2023-02-08T13:48:00;95131.69;;;-4.17;57.73
10988;BME280;5547;42.672;23.230;2023-02-08T13:51:02;95110.59;;;-4.10;58.06
10988;BME280;5547;42.672;23.230;2023-02-08T13:54:09;95135.81;;;-4.11;59.57
10988;BME280;5547;42.672;23.230;2023-02-08T14:01:01;95131.97;;;-4.29;60.79
10988;BME280;5547;42.672;23.230;2023-02-08T14:10:36;95130.00;;;-4.62;63.29
10988;BME280;5547;42.672;23.230;2023-02-08T14:14:00;95137.72;;;-4.37;60.54
10988;BME280;5547;42.672;23.230;2023-02-08T14:17:10;95135.91;;;-4.41;61.34
10988;BME280;5547;42.672;23.230;2023-02-08T14:20:27;95141.94;;;-4.61;60.81
10988;BME280;5547;42.672;23.230;2023-02-08T14:23:31;95052.22;;;-5.14;61.66
10988;BME280;5547;42.672;23.230;2023-02-08T14:26:35;95142.97;;;-4.68;62.21
10988;BME280;5547;42.672;23.230;2023-02-08T14:29:39;95017.00;;;-5.61;62.70
10988;BME280;5547;42.672;23.230;2023-02-08T14:32:43;94993.41;;;-5.85;62.67
10988;BME280;5547;42.672;23.230;2023-02-08T14:35:54;95082.59;;;-5.30;62.98
10988;BME280;5547;42.672;23.230;2023-02-08T14:39:22;95143.53;;;-4.91;63.15
10988;BME280;5547;42.672;23.230;2023-02-08T14:45:55;95057.97;;;-5.63;62.96
10988;BME280;5547;42.672;23.230;2023-02-08T14:48:55;95148.75;;;-5.17;64.17
10988;BME280;5547;42.672;23.230;2023-02-08T14:52:02;95080.25;;;-5.67;63.49
10988;BME280;5547;42.672;23.230;2023-02-08T14:55:12;95148.47;;;-5.15;64.53
10988;BME280;5547;42.672;23.230;2023-02-08T14:58:31;95033.56;;;-6.13;65.23
10988;BME280;5547;42.672;23.230;2023-02-08T15:01:46;95160.13;;;-5.49;66.31
10988;BME280;5547;42.672;23.230;2023-02-08T15:04:48;95081.72;;;-6.17;67.55
10988;BME280;5547;42.672;23.230;2023-02-08T15:07:55;95145.28;;;-5.89;68.25
10988;BME280;5547;42.672;23.230;2023-02-08T15:10:57;95033.97;;;-6.62;67.19
10988;BME280;5547;42.672;23.230;2023-02-08T15:14:00;95158.75;;;-5.97;67.59
10988;BME280;5547;42.672;23.230;2023-02-08T15:17:02;94859.94;;;-8.26;68.97
10988;BME280;5547;42.672;23.230;2023-02-08T15:20:06;95108.84;;;-6.40;68.45
10988;BME280;5547;42.672;23.230;2023-02-08T15:23:22;95153.69;;;-6.35;68.45
10988;BME280;5547;42.672;23.230;2023-02-08T15:26:23;95169.53;;;-6.26;68.92
10988;BME280;5547;42.672;23.230;2023-02-08T15:29:26;95172.13;;;-6.16;66.17
10988;BME280;5547;42.672;23.230;2023-02-08T15:32:28;95169.53;;;-6.26;67.97
10988;BME280;5547;42.672;23.230;2023-02-08T15:35:32;95167.88;;;-6.42;68.62
10988;BME280;5547;42.672;23.230;2023-02-08T15:38:35;95128.88;;;-6.73;67.98
10988;BME280;5547;42.672;23.230;2023-02-08T15:41:38;95166.75;;;-6.57;68.47
10988;BME280;5547;42.672;23.230;2023-02-08T15:44:48;95175.25;;;-6.61;67.98
10988;BME280;5547;42.672;23.230;2023-02-08T15:47:53;95138.81;;;-7.02;69.30
10988;BME280;5547;42.672;23.230;2023-02-08T15:50:57;95142.97;;;-6.96;68.39
10988;BME280;5547;42.672;23.230;2023-02-08T15:54:02;95175.09;;;-6.87;69.19
10988;BME280;5547;42.672;23.230;2023-02-08T16:00:30;95178.38;;;-7.02;70.26
10988;BME280;5547;42.672;23.230;2023-02-08T16:03:33;95150.50;;;-7.27;70.79
10988;BME280;5547;42.672;23.230;2023-02-08T16:06:48;95169.88;;;-7.29;71.69
10988;BME280;5547;42.672;23.230;2023-02-08T16:09:52;95060.97;;;-8.03;72.26
10988;BME280;5547;42.672;23.230;2023-02-08T16:12:59;95143.47;;;-7.64;72.79
10988;BME280;5547;42.672;23.230;2023-02-08T16:19:31;95173.00;;;-7.54;72.86
10988;BME280;5547;42.672;23.230;2023-02-08T16:22:32;95094.47;;;-8.08;72.45
10988;BME280;5547;42.672;23.230;2023-02-08T16:25:42;95186.31;;;-7.41;72.11
10988;BME280;5547;42.672;23.230;2023-02-08T16:28:50;95192.53;;;-7.42;72.65
10988;BME280;5547;42.672;23.230;2023-02-08T16:35:19;95115.09;;;-8.13;73.84
10988;BME280;5547;42.672;23.230;2023-02-08T16:38:22;95200.41;;;-7.53;74.13
10988;BME280;5547;42.672;23.230;2023-02-08T16:41:57;95155.22;;;-8.00;74.99
10988;BME280;5547;42.672;23.230;2023-02-08T16:48:29;95206.16;;;-7.73;75.29
10988;BME280;5547;42.672;23.230;2023-02-08T16:51:33;95151.47;;;-8.14;75.43
10988;BME280;5547;42.672;23.230;2023-02-08T16:54:34;95124.09;;;-8.37;75.72
10988;BME280;5547;42.672;23.230;2023-02-08T16:57:40;95196.88;;;-7.96;75.60
10988;BME280;5547;42.672;23.230;2023-02-08T17:00:42;95202.50;;;-7.77;75.76
10988;BME280;5547;42.672;23.230;2023-02-08T17:03:44;95085.41;;;-8.81;76.67
10988;BME280;5547;42.672;23.230;2023-02-08T17:06:45;95082.66;;;-8.75;76.34
10988;BME280;5547;42.672;23.230;2023-02-08T17:09:46;95196.28;;;-8.04;76.80
10988;BME280;5547;42.672;23.230;2023-02-08T17:12:46;95177.22;;;-8.19;76.99
10988;BME280;5547;42.672;23.230;2023-02-08T17:15:48;95205.16;;;-7.94;77.41
10988;BME280;5547;42.672;23.230;2023-02-08T17:18:50;95205.06;;;-7.99;77.45
10988;BME280;5547;42.672;23.230;2023-02-08T17:21:50;95178.72;;;-8.24;77.85
10988;BME280;5547;42.672;23.230;2023-02-08T17:24:51;95186.56;;;-8.13;77.98
10988;BME280;5547;42.672;23.230;2023-02-08T17:27:54;95195.94;;;-8.07;77.61
10988;BME280;5547;42.672;23.230;2023-02-08T17:30:55;95140.03;;;-8.46;77.79
10988;BME280;5547;42.672;23.230;2023-02-08T17:33:56;95192.06;;;-8.10;78.13
10988;BME280;5547;42.672;23.230;2023-02-08T17:37:03;95086.63;;;-9.06;78.91
10988;BME280;5547;42.672;23.230;2023-02-08T17:40:03;95131.38;;;-8.56;78.65
10988;BME280;5547;42.672;23.230;2023-02-08T17:43:09;95201.00;;;-8.17;78.73
10988;BME280;5547;42.672;23.230;2023-02-08T17:46:11;95156.03;;;-8.65;79.25
10988;BME280;5547;42.672;23.230;2023-02-08T17:49:16;95169.19;;;-8.45;79.53
10988;BME280;5547;42.672;23.230;2023-02-08T17:52:17;95144.78;;;-8.76;79.91
10988;BME280;5547;42.672;23.230;2023-02-08T17:55:20;95201.75;;;-8.39;80.42
10988;BME280;5547;42.672;23.230;2023-02-08T17:58:20;95200.50;;;-8.58;80.87
10988;BME280;5547;42.672;23.230;2023-02-08T18:01:24;95167.19;;;-8.60;81.01
10988;BME280;5547;42.672;23.230;2023-02-08T18:04:24;95203.13;;;-8.53;81.56
10988;BME280;5547;42.672;23.230;2023-02-08T18:07:25;95143.63;;;-8.85;81.95
10988;BME280;5547;42.672;23.230;2023-02-08T18:10:26;95186.75;;;-8.64;82.31
10988;BME280;5547;42.672;23.230;2023-02-08T18:13:27;95205.72;;;-8.53;82.57
10988;BME280;5547;42.672;23.230;2023-02-08T18:16:27;95122.72;;;-9.06;82.78
10988;BME280;5547;42.672;23.230;2023-02-08T18:19:28;95141.56;;;-9.05;83.45